Time;durP1;ratioP1;P1;durP2;ratioP2;P2;SDS_P1;SDS_P2;PMS_P1;PMS_P2;Temp;Humidity;BMP_temperature;BMP_pressure;BME280_temperature;BME280_humidity;BME280_pressure;Samples;Min_cycle;Max_cycle;Signal;HPM_P1;HPM_P2
2023/01/06 00:02:11;;;;;;;7.68;2.70;;;;;;;;;;6231652;28;20137;-61
2023/01/06 00:05:12;;;;;;;6.03;2.88;;;;;;;;;;6228340;28;20118;-60
2023/01/06 00:08:13;;;;;;;9.70;3.03;;;;;;;;;;6230207;28;20199;-60
2023/01/06 00:11:14;;;;;;;6.90;2.40;;;;;;;;;;6229616;28;20562;-60
2023/01/06 00:14:15;;;;;;;6.73;2.50;;;;;;;;;;6229713;28;20056;-60
2023/01/06 00:17:15;;;;;;;6.97;2.60;;;;;;;;;;6230261;28;20053;-60
2023/01/06 00:20:16;;;;;;;7.40;2.45;;;;;;;;;;6225994;28;20060;-60
2023/01/06 00:23:16;;;;;;;6.32;2.15;;;;;;;;;;6228591;28;20053;-61
2023/01/06 00:26:17;;;;;;;8.63;2.22;;;;;;;;;;6234803;28;20138;-61
2023/01/06 00:29:17;;;;;;;5.75;2.00;;;;;;;;;;6229676;28;20407;-61
2023/01/06 00:32:18;;;;;;;5.30;2.28;;;;;;;;;;6228436;28;20148;-61
2023/01/06 00:35:18;;;;;;;4.95;2.42;;;;;;;;;;6230111;28;20049;-61
2023/01/06 00:38:19;;;;;;;6.82;2.22;;;;;;;;;;6230506;28;20072;-61
2023/01/06 00:44:40;;;;;;;4.25;2.05;;;;;;;;;;6230084;28;20088;-61
2023/01/06 00:47:40;;;;;;;6.65;2.30;;;;;;;;;;6228330;28;20219;-61
2023/01/06 00:50:41;;;;;;;5.45;2.63;;;;;;;;;;6225745;28;20038;-60
2023/01/06 00:53:42;;;;;;;6.30;2.22;;;;;;;;;;6228205;28;20959;-61
2023/01/06 00:56:48;;;;;;;7.47;2.33;;;;;;;;;;6230016;28;20703;-61
2023/01/06 00:59:48;;;;;;;6.45;2.03;;;;;;;;;;6228015;28;20860;-60
2023/01/06 01:02:49;;;;;;;7.55;2.10;;;;;;;;;;6232905;28;20050;-65
2023/01/06 01:05:49;;;;;;;6.25;2.10;;;;;;;;;;6235609;28;20098;-62
2023/01/06 01:08:55;;;;;;;7.97;2.53;;;;;;;;;;6234648;28;20045;-61
2023/01/06 01:12:08;;;;;;;9.20;2.95;;;;;;;;;;6239039;28;20045;-63
2023/01/06 01:15:09;;;;;;;5.75;2.20;;;;;;;;;;6238164;28;20045;-62
2023/01/06 01:18:10;;;;;;;7.07;3.05;;;;;;;;;;6247850;28;20088;-64
2023/01/06 01:21:11;;;;;;;11.70;2.78;;;;;;;;;;6260134;28;20550;-63
2023/01/06 01:24:11;;;;;;;8.63;2.70;;;;;;;;;;6266625;28;20055;-65
2023/01/06 01:27:12;;;;;;;6.97;2.75;;;;;;;;;;6267447;28;20048;-62
2023/01/06 01:30:13;;;;;;;7.05;2.70;;;;;;;;;;6266834;28;20116;-62
2023/01/06 01:33:13;;;;;;;7.57;2.70;;;;;;;;;;6266917;28;20139;-61
2023/01/06 01:36:16;;;;;;;12.10;3.17;;;;;;;;;;6266532;28;20048;-64
2023/01/06 01:39:23;;;;;;;6.53;2.83;;;;;;;;;;6258755;28;20127;-63
2023/01/06 01:42:23;;;;;;;7.85;3.05;;;;;;;;;;6266768;28;20069;-63
2023/01/06 01:45:27;;;;;;;8.40;3.08;;;;;;;;;;6252476;28;20482;-65
2023/01/06 01:48:34;;;;;;;7.60;3.40;;;;;;;;;;6256105;28;20052;-62
2023/01/06 01:51:40;;;;;;;7.10;3.13;;;;;;;;;;6265716;28;20127;-65
2023/01/06 01:54:42;;;;;;;7.90;3.00;;;;;;;;;;6265242;28;20400;-62
2023/01/06 01:57:56;;;;;;;7.20;3.10;;;;;;;;;;6254671;28;20057;-62
2023/01/06 02:00:57;;;;;;;8.00;3.03;;;;;;;;;;6257376;28;20049;-65
2023/01/06 02:03:59;;;;;;;7.25;3.33;;;;;;;;;;6256818;28;20075;-65
2023/01/06 02:07:01;;;;;;;5.47;2.60;;;;;;;;;;6259982;28;20081;-64
2023/01/06 02:10:17;;;;;;;8.82;2.78;;;;;;;;;;6261809;28;20543;-65
2023/01/06 02:13:17;;;;;;;8.40;3.10;;;;;;;;;;6258927;28;20055;-61
2023/01/06 02:16:31;;;;;;;7.90;2.47;;;;;;;;;;6253206;28;20045;-61
2023/01/06 02:19:40;;;;;;;7.22;2.80;;;;;;;;;;6243521;28;20037;-62
2023/01/06 02:22:47;;;;;;;7.93;2.90;;;;;;;;;;6239767;28;20053;-62
2023/01/06 02:25:50;;;;;;;6.57;2.42;;;;;;;;;;6260938;28;20060;-61
2023/01/06 02:28:56;;;;;;;6.68;3.00;;;;;;;;;;6249776;28;20048;-61
2023/01/06 02:32:09;;;;;;;7.10;3.45;;;;;;;;;;6245166;28;20053;-61
2023/01/06 02:35:28;;;;;;;8.98;2.50;;;;;;;;;;6237391;28;20061;-61
2023/01/06 02:38:50;;;;;;;8.93;2.67;;;;;;;;;;6252804;28;20049;-62
2023/01/06 02:42:15;;;;;;;9.35;3.05;;;;;;;;;;6265237;28;20061;-61
2023/01/06 02:45:29;;;;;;;9.57;3.08;;;;;;;;;;6242031;28;20165;-61
2023/01/06 02:48:39;;;;;;;8.75;2.67;;;;;;;;;;6241271;28;20047;-62
2023/01/06 02:51:48;;;;;;;10.38;3.13;;;;;;;;;;6240519;28;20489;-62
2023/01/06 02:54:55;;;;;;;7.95;3.05;;;;;;;;;;6238318;28;20412;-62
2023/01/06 02:58:16;;;;;;;9.75;3.22;;;;;;;;;;6245906;28;20180;-64
2023/01/06 03:01:30;;;;;;;7.43;3.10;;;;;;;;;;6246151;28;20053;-62
2023/01/06 03:04:36;;;;;;;7.40;3.30;;;;;;;;;;6245890;28;20057;-62
2023/01/06 03:07:38;;;;;;;8.43;2.88;;;;;;;;;;6248807;28;20044;-62
2023/01/06 03:10:40;;;;;;;10.68;3.58;;;;;;;;;;6243473;28;21017;-61
2023/01/06 03:14:00;;;;;;;7.43;2.90;;;;;;;;;;6244191;28;20049;-62
2023/01/06 03:17:00;;;;;;;7.65;3.20;;;;;;;;;;6246207;28;20042;-61
2023/01/06 03:20:01;;;;;;;7.13;3.20;;;;;;;;;;6245748;28;20045;-61
2023/01/06 03:23:02;;;;;;;7.72;3.00;;;;;;;;;;6245892;28;21112;-61
2023/01/06 03:26:03;;;;;;;7.40;3.42;;;;;;;;;;6243676;28;20144;-61
2023/01/06 03:29:09;;;;;;;11.40;3.40;;;;;;;;;;6245277;28;20049;-61
2023/01/06 03:32:51;;;;;;;8.55;3.00;;;;;;;;;;6245237;28;20113;-62
2023/01/06 03:35:59;;;;;;;9.90;3.10;;;;;;;;;;6244563;28;20071;-62
2023/01/06 03:39:10;;;;;;;9.30;4.03;;;;;;;;;;6244097;28;20055;-61
2023/01/06 03:46:01;;;;;;;7.80;3.40;;;;;;;;;;6243049;28;20049;-61
2023/01/06 03:49:20;;;;;;;10.38;4.18;;;;;;;;;;6245807;28;20049;-61
2023/01/06 03:52:29;;;;;;;13.27;4.15;;;;;;;;;;6245428;28;20052;-62
2023/01/06 03:55:33;;;;;;;9.93;3.75;;;;;;;;;;6244530;28;20037;-61
2023/01/06 03:58:36;;;;;;;11.45;3.97;;;;;;;;;;6243820;28;20062;-61
2023/01/06 04:01:40;;;;;;;9.63;3.55;;;;;;;;;;6242787;28;20057;-61
2023/01/06 04:04:41;;;;;;;9.48;3.65;;;;;;;;;;6253084;28;20163;-61
2023/01/06 04:07:42;;;;;;;9.55;3.58;;;;;;;;;;6243975;28;20485;-61
2023/01/06 04:10:44;;;;;;;7.87;3.40;;;;;;;;;;6243852;28;20041;-61
2023/01/06 04:13:44;;;;;;;12.45;4.13;;;;;;;;;;6245357;28;20294;-63
2023/01/06 04:16:45;;;;;;;8.18;3.47;;;;;;;;;;6245113;28;20069;-61
2023/01/06 04:19:45;;;;;;;10.25;3.47;;;;;;;;;;6245583;28;20056;-61
2023/01/06 04:22:46;;;;;;;7.50;3.58;;;;;;;;;;6241316;28;20087;-62
2023/01/06 04:25:46;;;;;;;9.18;3.97;;;;;;;;;;6241578;28;20176;-62
2023/01/06 04:28:47;;;;;;;8.55;3.20;;;;;;;;;;6243581;28;20041;-62
2023/01/06 04:31:48;;;;;;;9.45;3.38;;;;;;;;;;6243509;28;20053;-61
2023/01/06 04:34:49;;;;;;;9.52;3.50;;;;;;;;;;6244501;28;20057;-61
2023/01/06 04:37:50;;;;;;;8.52;3.80;;;;;;;;;;6243616;28;20514;-62
2023/01/06 04:40:50;;;;;;;11.63;3.80;;;;;;;;;;6241018;28;20081;-63
2023/01/06 04:43:51;;;;;;;7.97;3.60;;;;;;;;;;6246079;28;20048;-61
2023/01/06 04:46:52;;;;;;;7.18;3.33;;;;;;;;;;6243052;28;20191;-62
2023/01/06 04:49:52;;;;;;;7.63;3.40;;;;;;;;;;6242835;28;20439;-62
2023/01/06 04:52:53;;;;;;;6.90;3.40;;;;;;;;;;6244686;28;20125;-62
2023/01/06 04:55:53;;;;;;;8.05;3.70;;;;;;;;;;6243838;28;20041;-62
2023/01/06 04:58:55;;;;;;;9.30;4.13;;;;;;;;;;6244926;28;20436;-62
2023/01/06 05:01:56;;;;;;;13.45;3.83;;;;;;;;;;6245465;28;20045;-62
2023/01/06 05:04:57;;;;;;;7.75;4.00;;;;;;;;;;6244550;28;20455;-62
2023/01/06 05:07:57;;;;;;;9.50;4.05;;;;;;;;;;6251229;28;20419;-63
2023/01/06 05:11:04;;;;;;;8.23;3.90;;;;;;;;;;6248045;28;20048;-62
2023/01/06 05:14:04;;;;;;;7.55;4.20;;;;;;;;;;6240978;28;20056;-62
2023/01/06 05:17:05;;;;;;;10.77;3.95;;;;;;;;;;6240991;28;20038;-62
2023/01/06 05:20:06;;;;;;;8.75;4.00;;;;;;;;;;6235708;28;20045;-61
2023/01/06 05:23:07;;;;;;;12.80;4.78;;;;;;;;;;6244949;28;20053;-62
2023/01/06 05:26:14;;;;;;;11.65;4.22;;;;;;;;;;6247828;28;20080;-62
2023/01/06 05:29:17;;;;;;;12.02;4.38;;;;;;;;;;6239630;28;20087;-62
2023/01/06 05:32:17;;;;;;;8.05;3.85;;;;;;;;;;6240888;28;20496;-62
2023/01/06 05:35:19;;;;;;;11.40;4.45;;;;;;;;;;6242569;28;20455;-62
2023/01/06 05:38:19;;;;;;;11.50;4.22;;;;;;;;;;6243946;28;20048;-62
2023/01/06 05:41:20;;;;;;;9.38;4.35;;;;;;;;;;6242632;28;20069;-61
2023/01/06 05:44:20;;;;;;;8.38;3.47;;;;;;;;;;6262606;28;20041;-61
2023/01/06 05:47:21;;;;;;;9.80;4.13;;;;;;;;;;6242222;28;20044;-62
2023/01/06 05:50:22;;;;;;;11.38;4.22;;;;;;;;;;6242822;28;20058;-62
2023/01/06 05:53:22;;;;;;;9.73;4.40;;;;;;;;;;6240505;28;20128;-62
2023/01/06 05:56:23;;;;;;;9.50;4.07;;;;;;;;;;6258792;28;20049;-64
2023/01/06 05:59:23;;;;;;;8.98;3.90;;;;;;;;;;6251856;28;20049;-62
2023/01/06 06:02:25;;;;;;;11.97;3.87;;;;;;;;;;6249227;28;20052;-61
2023/01/06 06:05:26;;;;;;;11.18;4.57;;;;;;;;;;6263523;28;21002;-61
2023/01/06 06:08:28;;;;;;;8.73;3.88;;;;;;;;;;6244447;28;21169;-62
2023/01/06 06:11:28;;;;;;;11.00;4.28;;;;;;;;;;6240260;28;20051;-62
2023/01/06 06:14:29;;;;;;;12.43;4.43;;;;;;;;;;6242699;28;20045;-62
2023/01/06 06:17:30;;;;;;;9.52;4.25;;;;;;;;;;6252997;28;20049;-62
2023/01/06 06:20:30;;;;;;;12.05;4.47;;;;;;;;;;6255268;28;20057;-62
2023/01/06 06:23:31;;;;;;;7.88;3.58;;;;;;;;;;6240208;28;20045;-61
2023/01/06 06:26:31;;;;;;;9.68;3.92;;;;;;;;;;6242239;28;20099;-61
2023/01/06 06:29:32;;;;;;;9.52;4.30;;;;;;;;;;6252338;28;20040;-62
2023/01/06 06:32:33;;;;;;;11.35;4.32;;;;;;;;;;6266114;28;20467;-63
2023/01/06 06:35:33;;;;;;;11.48;3.97;;;;;;;;;;6261967;28;20057;-63
2023/01/06 06:38:34;;;;;;;11.07;4.70;;;;;;;;;;6261204;28;20045;-63
2023/01/06 06:41:35;;;;;;;8.25;4.05;;;;;;;;;;6257055;28;20111;-63
2023/01/06 06:44:35;;;;;;;10.68;3.97;;;;;;;;;;6263910;28;20124;-62
2023/01/06 06:47:36;;;;;;;10.00;4.07;;;;;;;;;;6253151;28;20148;-63
2023/01/06 06:50:36;;;;;;;12.05;5.00;;;;;;;;;;6257402;28;20496;-61
2023/01/06 06:53:38;;;;;;;11.70;4.85;;;;;;;;;;6262199;28;20049;-62
2023/01/06 06:56:38;;;;;;;7.93;3.92;;;;;;;;;;6247695;28;20060;-62
2023/01/06 06:59:39;;;;;;;11.50;4.93;;;;;;;;;;6251671;28;20073;-61
2023/01/06 07:02:39;;;;;;;10.80;3.92;;;;;;;;;;6263463;28;20045;-62
2023/01/06 07:05:44;;;;;;;15.43;5.15;;;;;;;;;;6262010;28;20053;-61
2023/01/06 07:08:46;;;;;;;12.48;5.45;;;;;;;;;;6260219;28;20762;-61
2023/01/06 07:11:46;;;;;;;15.33;5.53;;;;;;;;;;6262736;28;20053;-61
2023/01/06 07:14:47;;;;;;;12.63;5.57;;;;;;;;;;6256582;28;20389;-61
2023/01/06 07:17:48;;;;;;;14.68;6.15;;;;;;;;;;6240205;28;20531;-61
2023/01/06 07:20:51;;;;;;;17.08;6.72;;;;;;;;;;6260489;28;20175;-61
2023/01/06 07:23:52;;;;;;;14.05;6.30;;;;;;;;;;6257903;28;20459;-61
2023/01/06 07:26:52;;;;;;;14.77;6.75;;;;;;;;;;6249267;28;20045;-61
2023/01/06 07:29:53;;;;;;;15.07;6.47;;;;;;;;;;6259187;28;20095;-60
2023/01/06 07:32:54;;;;;;;15.05;6.32;;;;;;;;;;6250927;28;20404;-63
2023/01/06 07:35:56;;;;;;;14.63;6.57;;;;;;;;;;6256928;28;20053;-62
2023/01/06 07:38:56;;;;;;;12.02;6.00;;;;;;;;;;6264083;28;20447;-63
2023/01/06 07:41:57;;;;;;;16.55;10.30;;;;;;;;;;6264993;28;20041;-64
2023/01/06 07:44:57;;;;;;;13.52;6.20;;;;;;;;;;6269950;28;20438;-62
2023/01/06 07:47:58;;;;;;;15.77;6.40;;;;;;;;;;6270708;28;20076;-62
2023/01/06 07:50:58;;;;;;;13.93;6.22;;;;;;;;;;6270963;28;20045;-62
2023/01/06 07:54:00;;;;;;;12.30;6.35;;;;;;;;;;6267006;28;20048;-62
2023/01/06 07:57:00;;;;;;;24.35;8.95;;;;;;;;;;6269817;28;20049;-62
2023/01/06 08:00:01;;;;;;;17.77;6.95;;;;;;;;;;6270490;28;20137;-62
2023/01/06 08:03:04;;;;;;;18.10;6.88;;;;;;;;;;6268450;28;20646;-63
2023/01/06 08:06:09;;;;;;;16.90;6.80;;;;;;;;;;6266014;28;20587;-62
2023/01/06 08:09:09;;;;;;;21.85;9.05;;;;;;;;;;6267105;28;20037;-66
2023/01/06 08:12:11;;;;;;;21.20;7.03;;;;;;;;;;6252068;28;20134;-64
2023/01/06 08:15:11;;;;;;;26.83;14.88;;;;;;;;;;6254225;28;20045;-64
2023/01/06 08:18:12;;;;;;;15.88;6.65;;;;;;;;;;6251373;28;20132;-64
2023/01/06 08:21:13;;;;;;;14.63;5.70;;;;;;;;;;6264255;28;20789;-63
2023/01/06 08:24:13;;;;;;;11.75;5.50;;;;;;;;;;6260320;28;20103;-64
2023/01/06 08:27:14;;;;;;;13.75;6.85;;;;;;;;;;6255714;28;20053;-63
2023/01/06 08:30:20;;;;;;;13.88;6.03;;;;;;;;;;6250076;28;20041;-63
2023/01/06 08:33:23;;;;;;;10.82;4.68;;;;;;;;;;6247403;28;20042;-63
2023/01/06 08:36:25;;;;;;;11.85;5.72;;;;;;;;;;6251512;28;20919;-64
2023/01/06 08:39:25;;;;;;;13.55;5.30;;;;;;;;;;6255087;28;20492;-62
2023/01/06 08:42:26;;;;;;;12.20;5.55;;;;;;;;;;6268664;28;20041;-62
2023/01/06 08:45:27;;;;;;;13.88;5.55;;;;;;;;;;6269109;28;20910;-63
2023/01/06 08:48:28;;;;;;;15.93;7.88;;;;;;;;;;6269109;28;20431;-63
2023/01/06 08:51:28;;;;;;;12.95;5.80;;;;;;;;;;6268381;28;20452;-63
2023/01/06 08:54:29;;;;;;;14.75;6.20;;;;;;;;;;6268416;28;20048;-61
2023/01/06 08:57:30;;;;;;;19.58;10.95;;;;;;;;;;6268183;28;20060;-61
2023/01/06 09:00:30;;;;;;;23.85;13.15;;;;;;;;;;6268865;28;20127;-61
2023/01/06 09:03:31;;;;;;;18.55;8.52;;;;;;;;;;6268136;28;20051;-64
2023/01/06 09:06:33;;;;;;;33.05;14.05;;;;;;;;;;6266993;28;20468;-61
2023/01/06 09:09:34;;;;;;;24.27;7.72;;;;;;;;;;6264538;28;20049;-61
2023/01/06 09:12:35;;;;;;;18.88;7.18;;;;;;;;;;6238779;28;20454;-61
2023/01/06 09:15:39;;;;;;;23.30;10.55;;;;;;;;;;6241364;28;20368;-61
2023/01/06 09:18:46;;;;;;;38.30;15.35;;;;;;;;;;6241295;28;20065;-61
2023/01/06 09:21:46;;;;;;;33.05;17.55;;;;;;;;;;6241224;28;20076;-61
2023/01/06 09:24:47;;;;;;;16.98;7.20;;;;;;;;;;6238989;28;20049;-60
2023/01/06 09:27:47;;;;;;;25.55;13.10;;;;;;;;;;6241057;28;20702;-61
2023/01/06 09:30:48;;;;;;;16.50;5.00;;;;;;;;;;6238859;28;20480;-61
2023/01/06 09:33:49;;;;;;;19.08;9.70;;;;;;;;;;6239060;28;20053;-61
2023/01/06 09:36:49;;;;;;;12.30;6.15;;;;;;;;;;6241690;28;20056;-63
2023/01/06 09:39:50;;;;;;;13.98;5.93;;;;;;;;;;6245551;28;20044;-61
2023/01/06 09:43:02;;;;;;;10.70;5.75;;;;;;;;;;6246975;28;20052;-61
2023/01/06 09:46:05;;;;;;;16.60;8.70;;;;;;;;;;6245040;28;20147;-61
2023/01/06 09:49:14;;;;;;;10.85;5.40;;;;;;;;;;6240644;28;20611;-62
2023/01/06 09:52:21;;;;;;;12.70;5.15;;;;;;;;;;6243401;28;20458;-61
2023/01/06 09:55:37;;;;;;;15.88;5.53;;;;;;;;;;6241387;28;20106;-62
2023/01/06 09:58:44;;;;;;;12.23;4.95;;;;;;;;;;6242150;28;20098;-62
2023/01/06 10:01:48;;;;;;;13.45;6.68;;;;;;;;;;6240433;28;20041;-63
2023/01/06 10:04:49;;;;;;;14.70;6.88;;;;;;;;;;6239666;28;20526;-61
2023/01/06 10:08:07;;;;;;;15.88;6.72;;;;;;;;;;6244412;28;20045;-61
2023/01/06 10:11:13;;;;;;;12.57;5.22;;;;;;;;;;6264614;28;20913;-61
2023/01/06 10:14:23;;;;;;;13.98;4.78;;;;;;;;;;6246658;28;20461;-61
2023/01/06 10:17:57;;;;;;;10.70;4.50;;;;;;;;;;6240670;28;20068;-61
2023/01/06 10:21:25;;;;;;;17.42;8.95;;;;;;;;;;6238485;28;20081;-61
2023/01/06 10:24:34;;;;;;;19.80;7.95;;;;;;;;;;6257376;28;20049;-61
2023/01/06 10:27:45;;;;;;;22.92;7.75;;;;;;;;;;6245199;28;20050;-61
2023/01/06 10:30:51;;;;;;;20.45;7.45;;;;;;;;;;6241208;28;20049;-61
2023/01/06 10:33:54;;;;;;;22.27;8.45;;;;;;;;;;6252878;28;20065;-61
2023/01/06 10:37:08;;;;;;;18.45;7.82;;;;;;;;;;6255118;28;20091;-61
2023/01/06 10:40:18;;;;;;;53.15;26.38;;;;;;;;;;6253277;28;20499;-61
2023/01/06 10:43:21;;;;;;;20.75;9.38;;;;;;;;;;6249551;28;20048;-61
2023/01/06 10:46:29;;;;;;;20.35;10.35;;;;;;;;;;6245681;28;20051;-61
2023/01/06 10:49:30;;;;;;;17.05;6.47;;;;;;;;;;6263893;28;20073;-61
2023/01/06 10:52:32;;;;;;;18.10;8.60;;;;;;;;;;6243284;28;20053;-61
2023/01/06 10:55:42;;;;;;;13.02;6.63;;;;;;;;;;6245954;28;20037;-65
2023/01/06 10:58:51;;;;;;;20.58;10.45;;;;;;;;;;6265902;28;20128;-61
2023/01/06 11:01:55;;;;;;;13.43;7.13;;;;;;;;;;6245942;28;20052;-61
2023/01/06 11:05:00;;;;;;;20.33;9.68;;;;;;;;;;6237853;28;20144;-61
2023/01/06 11:08:00;;;;;;;21.90;9.40;;;;;;;;;;6233989;28;20737;-61
2023/01/06 11:11:07;;;;;;;18.83;9.75;;;;;;;;;;6243794;28;20056;-61
2023/01/06 11:14:15;;;;;;;20.85;11.02;;;;;;;;;;6253921;28;20392;-61
2023/01/06 11:17:20;;;;;;;24.13;10.20;;;;;;;;;;6247660;28;20055;-62
2023/01/06 11:20:21;;;;;;;28.65;9.70;;;;;;;;;;6266880;28;20085;-61
2023/01/06 11:23:22;;;;;;;21.27;10.48;;;;;;;;;;6245642;28;20049;-61
2023/01/06 11:26:22;;;;;;;23.38;10.13;;;;;;;;;;6241869;28;21750;-66
2023/01/06 11:29:32;;;;;;;22.38;10.65;;;;;;;;;;6245384;28;20457;-62
2023/01/06 11:32:33;;;;;;;24.15;9.85;;;;;;;;;;6242550;28;20115;-61
2023/01/06 11:35:34;;;;;;;19.85;10.52;;;;;;;;;;6249518;28;20053;-61
2023/01/06 11:38:53;;;;;;;25.60;13.40;;;;;;;;;;6255984;28;20498;-62
2023/01/06 11:41:56;;;;;;;23.33;11.30;;;;;;;;;;6243160;28;20543;-61
2023/01/06 11:44:56;;;;;;;18.40;8.77;;;;;;;;;;6245206;28;20055;-64
2023/01/06 11:47:57;;;;;;;24.90;9.45;;;;;;;;;;6249134;28;20788;-61
2023/01/06 11:51:01;;;;;;;24.27;11.55;;;;;;;;;;6251029;28;20111;-63
2023/01/06 11:54:02;;;;;;;30.65;14.32;;;;;;;;;;6252253;28;20049;-61
2023/01/06 11:57:36;;;;;;;32.95;14.85;;;;;;;;;;6266232;28;20068;-61
2023/01/06 12:00:44;;;;;;;27.27;15.25;;;;;;;;;;6244508;28;20049;-62
2023/01/06 12:03:49;;;;;;;29.90;16.08;;;;;;;;;;6241312;28;20075;-61
2023/01/06 12:06:58;;;;;;;27.42;12.45;;;;;;;;;;6243364;28;20133;-61
2023/01/06 12:10:05;;;;;;;49.08;26.73;;;;;;;;;;6244407;28;20128;-61
2023/01/06 12:13:11;;;;;;;61.42;34.88;;;;;;;;;;6253594;28;20076;-61
2023/01/06 12:16:22;;;;;;;61.88;32.75;;;;;;;;;;6247333;28;20088;-61
2023/01/06 12:19:33;;;;;;;23.63;10.45;;;;;;;;;;6241572;28;20192;-64
2023/01/06 12:22:39;;;;;;;19.83;8.70;;;;;;;;;;6258070;28;20167;-65
2023/01/06 12:25:45;;;;;;;22.75;10.00;;;;;;;;;;6268323;28;20431;-61
2023/01/06 12:28:47;;;;;;;35.30;14.70;;;;;;;;;;6264268;28;20057;-64
2023/01/06 12:32:09;;;;;;;;;;;;;;;;;;6267134;28;20147;-62
2023/01/06 12:35:17;;;;;;;29.92;11.63;;;;;;;;;;6266924;28;20265;-64
2023/01/06 12:38:30;;;;;;;22.27;9.73;;;;;;;;;;6268439;28;20068;-61
2023/01/06 12:41:36;;;;;;;75.20;32.85;;;;;;;;;;6268994;28;20074;-61
2023/01/06 12:44:45;;;;;;;24.85;11.00;;;;;;;;;;6267797;28;20057;-62
2023/01/06 12:47:50;;;;;;;24.48;10.07;;;;;;;;;;6261695;28;20092;-61
2023/01/06 12:50:56;;;;;;;24.75;10.27;;;;;;;;;;6256166;28;20051;-60
2023/01/06 12:54:03;;;;;;;23.45;9.27;;;;;;;;;;6264966;28;20080;-64
2023/01/06 12:57:33;;;;;;;29.10;11.98;;;;;;;;;;6260497;28;20418;-64
2023/01/06 13:00:42;;;;;;;20.55;9.82;;;;;;;;;;6249327;28;20528;-64
2023/01/06 13:04:13;;;;;;;22.77;10.50;;;;;;;;;;6262364;28;20072;-64
2023/01/06 13:07:34;;;;;;;25.52;10.75;;;;;;;;;;6255200;28;20495;-66
2023/01/06 13:11:00;;;;;;;31.58;12.55;;;;;;;;;;6253689;28;20041;-65
2023/01/06 13:14:59;;;;;;;24.10;11.43;;;;;;;;;;6250269;28;20116;-65
2023/01/06 13:18:00;;;;;;;24.83;10.35;;;;;;;;;;6185395;28;20042;-61
2023/01/06 13:21:13;;;;;;;25.98;9.60;;;;;;;;;;6192859;28;20469;-60
2023/01/06 13:24:28;;;;;;;25.85;11.27;;;;;;;;;;6254329;28;20085;-63
2023/01/06 13:27:53;;;;;;;26.27;11.80;;;;;;;;;;6249760;28;20048;-64
2023/01/06 13:31:05;;;;;;;29.30;14.25;;;;;;;;;;6255699;28;20044;-62
2023/01/06 13:34:06;;;;;;;34.47;16.13;;;;;;;;;;6243848;28;20092;-62
2023/01/06 13:37:36;;;;;;;42.40;22.13;;;;;;;;;;6260091;28;20419;-63
2023/01/06 13:40:39;;;;;;;94.10;33.92;;;;;;;;;;6266751;28;20053;-62
2023/01/06 13:43:42;;;;;;;51.20;20.30;;;;;;;;;;6267545;28;20484;-62
2023/01/06 13:46:42;;;;;;;;;;;;;;;;;;6259110;28;20048;-63
2023/01/06 13:49:43;;;;;;;22.25;9.77;;;;;;;;;;6235647;28;19929;-62
2023/01/06 13:52:45;;;;;;;24.08;11.23;;;;;;;;;;6237194;28;20067;-65
2023/01/06 13:55:46;;;;;;;30.00;12.60;;;;;;;;;;6234237;28;20653;-65
2023/01/06 13:58:49;;;;;;;32.92;13.93;;;;;;;;;;6232550;28;20041;-63
2023/01/06 14:01:51;;;;;;;35.40;17.20;;;;;;;;;;6237527;28;20416;-63
2023/01/06 14:04:51;;;;;;;31.27;14.20;;;;;;;;;;6214175;28;20053;-61
2023/01/06 14:08:01;;;;;;;39.10;14.30;;;;;;;;;;6230949;28;20488;-64
2023/01/06 14:11:24;;;;;;;70.07;23.23;;;;;;;;;;6233203;28;20087;-64
2023/01/06 14:14:37;;;;;;;91.32;29.88;;;;;;;;;;6235765;28;20053;-64
2023/01/06 14:17:40;;;;;;;83.78;23.88;;;;;;;;;;6236087;28;20063;-64
2023/01/06 14:20:41;;;;;;;71.50;22.35;;;;;;;;;;6233483;28;20049;-64
2023/01/06 14:24:16;;;;;;;64.03;24.83;;;;;;;;;;6237092;28;20069;-66
2023/01/06 14:27:49;;;;;;;79.70;30.40;;;;;;;;;;6233965;28;20807;-66
2023/01/06 14:31:10;;;;;;;73.15;23.77;;;;;;;;;;6232810;28;20049;-64
2023/01/06 14:34:16;;;;;;;52.00;19.90;;;;;;;;;;6232666;28;20061;-63
2023/01/06 14:37:22;;;;;;;46.75;18.60;;;;;;;;;;6231089;28;20069;-61
2023/01/06 14:40:30;;;;;;;48.38;21.90;;;;;;;;;;6231557;28;20493;-61
2023/01/06 14:43:46;;;;;;;40.63;17.58;;;;;;;;;;6234780;28;20132;-62
2023/01/06 14:46:51;;;;;;;57.28;25.63;;;;;;;;;;6231187;28;20544;-61
2023/01/06 14:49:57;;;;;;;61.45;26.33;;;;;;;;;;6231568;28;20051;-60
2023/01/06 14:53:06;;;;;;;51.55;22.52;;;;;;;;;;6235616;28;20053;-60
2023/01/06 14:56:17;;;;;;;44.58;22.02;;;;;;;;;;6238715;28;20136;-62
2023/01/06 14:59:21;;;;;;;49.55;22.48;;;;;;;;;;6233519;28;20052;-61
2023/01/06 15:02:23;;;;;;;40.10;18.98;;;;;;;;;;6231486;28;20050;-62
2023/01/06 15:05:31;;;;;;;36.83;19.17;;;;;;;;;;6235432;28;20172;-62
2023/01/06 15:08:32;;;;;;;49.30;23.20;;;;;;;;;;6235786;28;20087;-62
2023/01/06 15:11:39;;;;;;;51.00;26.20;;;;;;;;;;6234346;28;20056;-62
2023/01/06 15:14:40;;;;;;;62.28;27.38;;;;;;;;;;6235704;28;20061;-62
2023/01/06 15:17:41;;;;;;;167.43;54.72;;;;;;;;;;6234908;28;20666;-63
2023/01/06 15:20:42;;;;;;;214.75;79.82;;;;;;;;;;6232364;28;20061;-63
2023/01/06 15:23:49;;;;;;;221.65;70.93;;;;;;;;;;6236174;28;20878;-63
2023/01/06 15:26:52;;;;;;;258.63;91.68;;;;;;;;;;6237751;28;20074;-63
2023/01/06 15:29:55;;;;;;;164.38;66.15;;;;;;;;;;6232828;28;20144;-63
2023/01/06 15:32:56;;;;;;;128.75;52.47;;;;;;;;;;6235535;28;20061;-63
2023/01/06 15:35:58;;;;;;;129.82;60.22;;;;;;;;;;6235813;28;20522;-64
2023/01/06 15:39:01;;;;;;;100.93;45.38;;;;;;;;;;6234422;28;20048;-63
2023/01/06 15:42:04;;;;;;;111.13;54.67;;;;;;;;;;6235777;28;20048;-62
2023/01/06 15:45:05;;;;;;;110.10;47.75;;;;;;;;;;6234739;28;20140;-62
2023/01/06 15:48:25;;;;;;;105.78;48.92;;;;;;;;;;6235045;28;20060;-62
2023/01/06 15:51:25;;;;;;;103.63;51.22;;;;;;;;;;6231193;28;20077;-61
2023/01/06 15:54:29;;;;;;;102.75;42.58;;;;;;;;;;6235600;28;20080;-60
2023/01/06 15:57:37;;;;;;;84.97;35.65;;;;;;;;;;6237826;28;20049;-61
2023/01/06 16:01:06;;;;;;;145.55;68.57;;;;;;;;;;6234128;28;20052;-61
2023/01/06 16:04:07;;;;;;;116.32;51.05;;;;;;;;;;6232391;28;20064;-61
2023/01/06 16:07:40;;;;;;;110.57;41.10;;;;;;;;;;6233641;28;20068;-60
2023/01/06 16:10:42;;;;;;;115.78;38.55;;;;;;;;;;6232432;28;20061;-60
2023/01/06 16:13:56;;;;;;;;;;;;;;;;;;6236547;28;20049;-60
2023/01/06 16:17:22;;;;;;;106.70;38.05;;;;;;;;;;6235346;28;19925;-60
2023/01/06 16:20:23;;;;;;;139.70;55.30;;;;;;;;;;6232337;28;20424;-60
2023/01/06 16:23:28;;;;;;;129.32;49.00;;;;;;;;;;6235357;28;20057;-60
2023/01/06 16:26:31;;;;;;;133.20;50.00;;;;;;;;;;6233174;28;20056;-60
2023/01/06 16:29:34;;;;;;;158.50;61.33;;;;;;;;;;6235481;28;20065;-61
2023/01/06 16:32:38;;;;;;;220.27;85.63;;;;;;;;;;6230149;28;20064;-63
2023/01/06 16:35:39;;;;;;;177.05;67.38;;;;;;;;;;6232552;28;20500;-63
2023/01/06 16:38:40;;;;;;;151.30;62.63;;;;;;;;;;6232133;28;20065;-64
2023/01/06 16:41:59;;;;;;;105.65;44.95;;;;;;;;;;6235033;28;20053;-64
2023/01/06 16:45:19;;;;;;;110.78;49.05;;;;;;;;;;6234989;28;20049;-63
2023/01/06 16:48:19;;;;;;;111.88;49.13;;;;;;;;;;6236106;28;20095;-62
2023/01/06 16:51:21;;;;;;;112.40;45.58;;;;;;;;;;6233563;28;20053;-62
2023/01/06 16:54:22;;;;;;;89.40;37.40;;;;;;;;;;6235888;28;20686;-61
2023/01/06 16:57:23;;;;;;;79.70;33.90;;;;;;;;;;6238935;28;20057;-62
2023/01/06 17:00:23;;;;;;;79.63;37.70;;;;;;;;;;6233134;28;20045;-62
2023/01/06 17:03:30;;;;;;;88.65;35.58;;;;;;;;;;6238573;28;20668;-62
2023/01/06 17:06:30;;;;;;;79.30;35.70;;;;;;;;;;6232920;28;20063;-62
2023/01/06 17:09:33;;;;;;;83.05;34.30;;;;;;;;;;6232302;28;20049;-62
2023/01/06 17:16:13;;;;;;;79.07;36.58;;;;;;;;;;6235282;28;19931;-60
2023/01/06 17:19:18;;;;;;;74.60;32.03;;;;;;;;;;6237040;28;20060;-60
2023/01/06 17:22:28;;;;;;;68.20;31.33;;;;;;;;;;6238004;28;20507;-60
2023/01/06 17:25:29;;;;;;;70.82;30.33;;;;;;;;;;6236298;28;20050;-61
2023/01/06 17:28:31;;;;;;;135.07;56.00;;;;;;;;;;6234571;28;20083;-60
2023/01/06 17:31:35;;;;;;;75.22;27.08;;;;;;;;;;6231194;28;20049;-61
2023/01/06 17:34:36;;;;;;;52.70;22.77;;;;;;;;;;6237354;28;20215;-60
2023/01/06 17:37:37;;;;;;;52.92;20.65;;;;;;;;;;6236355;28;20057;-60
2023/01/06 17:40:38;;;;;;;45.22;18.08;;;;;;;;;;6234704;28;20672;-60
2023/01/06 17:43:38;;;;;;;129.30;46.67;;;;;;;;;;6233997;28;20052;-60
2023/01/06 17:46:39;;;;;;;332.73;110.03;;;;;;;;;;6235251;28;20056;-60
2023/01/06 17:49:42;;;;;;;391.02;114.10;;;;;;;;;;6234560;28;20124;-60
2023/01/06 17:55:41;;;;;;;71.50;29.48;;;;;;;;;;6238486;28;20052;-60
2023/01/06 17:56:07;;;;;;;225.07;84.57;;;;;;;;;;6235009;28;20057;-59
2023/01/06 17:59:15;;;;;;;266.83;84.07;;;;;;;;;;6227370;28;20420;-61
2023/01/06 18:02:35;;;;;;;243.05;82.03;;;;;;;;;;6231956;28;20056;-61
2023/01/06 18:05:36;;;;;;;136.32;42.05;;;;;;;;;;6236140;28;20618;-60
2023/01/06 18:08:37;;;;;;;331.40;98.13;;;;;;;;;;6232926;28;20202;-61
2023/01/06 18:11:49;;;;;;;133.20;47.40;;;;;;;;;;6235258;28;20053;-60
2023/01/06 18:14:49;;;;;;;167.82;59.58;;;;;;;;;;6234180;28;20318;-60
2023/01/06 18:17:50;;;;;;;87.28;29.17;;;;;;;;;;6238591;28;20049;-60
2023/01/06 18:21:35;;;;;;;132.10;48.88;;;;;;;;;;6231755;28;20373;-60
2023/01/06 18:24:37;;;;;;;63.40;25.10;;;;;;;;;;6206840;28;20057;-62